• Join FlightAware (Why Join?)
  • Login
  • US Flag 
03:12PM EST


 

Airport Tracker/Info


-or-


 

Live Flight TrackerFlight Track Log ✈ N42HN ✈ 5 Jul 2013 ✈ KFLL - KAMA

Flight Track Log - Related Links

Times and Time Zones

All times are in EDT time to prevent confusion due to time zone crossing. See the N42HN flight status page for this flight to view local times or setup timezone preferences in your user account.

Time Position Orientation Groundspeed Altitude Reporting Facility
EDT Latitude Longitude Course Direction KTS MPH feet Rate Location/Type
03:59PM 26.0750 -80.1389 336° Northwest 170 196 800  Level Miami Center
04:00PM 26.0869 -80.0653 80° East 218 251 3,900 2,700 Climbing Miami Center
04:01PM 26.1517 -80.0669 359° North 187 215 6,800 2,580 Climbing Miami Center
04:02PM 26.2100 -80.1681 303° West 126 145 9,100 2,040 Climbing Miami Center
04:03PM 26.2125 -80.2400 272° West 244 281 10,900 1,380 Climbing Miami Center
04:04PM 26.2433 -80.3567 286° West 320 368 11,900 1,620 Climbing Miami Center
04:05PM 26.3853 -80.7093 336° Northwest  Level FlightAware Approximate
04:05PM 26.2733 -80.4872 284° West 387 445 14,200  Level Miami Center
04:06PM 26.3269 -80.5978 298° West 406 467 16,700 1,980 Climbing Miami Center
04:07PM 26.3953 -80.6997 307° West 412 474 18,200 1,500 Climbing Miami Center
04:08PM 26.4533 -80.7992 303° West 423 487 19,700 1,500 Climbing Miami Center
04:09PM 26.5317 -80.9153 307° West 428 493 21,300 1,560 Climbing Miami Center
04:10PM 26.5994 -81.0269 304° West 428 493 22,900 1,800 Climbing Miami Center
04:11PM 26.6594 -81.1197 306° West 428 493 24,900 1,920 Climbing Miami Center
04:12PM 26.7311 -81.2361 305° West 421 484 26,800 1,440 Climbing Miami Center
04:13PM 26.7778 -81.3472 295° West 405 466 27,800 900 Climbing Miami Center
04:14PM 26.8181 -81.4653 291° West 404 465 28,600 780 Climbing Miami Center
04:15PM 26.8578 -81.5878 290° West 416 479 29,400 780 Climbing Miami Center
04:16PM 26.8939 -81.7008 290° West 416 479 30,200 840 Climbing Miami Center
04:17PM 26.9314 -81.8258 289° West 422 486 31,100 900 Climbing Miami Center
04:18PM 26.9689 -81.9486 289° West 422 486 32,000 900 Climbing Miami Center
04:19PM 27.0119 -82.0833 290° West 422 486 33,000 900 Climbing Miami Center
04:20PM 27.0436 -82.1919 288° West 417 480 33,900 780 Climbing Miami Center
04:21PM 27.0869 -82.3128 292° West 411 473 34,600 720 Climbing Miami Center
04:22PM 27.1222 -82.4311 289° West 411 473 35,400 660 Climbing Miami Center
04:23PM 27.1553 -82.5469 288° West 411 473 36,000 540 Climbing Miami Center
04:24PM 27.1900 -82.6678 288° West 406 467 36,500 480 Climbing Miami Center
04:25PM 27.2311 -82.7864 291° West 406 467 37,000 780 Climbing Miami Center
04:26PM 27.2619 -82.9025 287° West 406 467 38,100 900 Climbing Miami Center
04:27PM 27.2989 -83.0142 290° West 401 461 38,800 360 Climbing Miami Center
04:28PM 27.3336 -83.1281 289° West 390 449 38,900 300 Climbing Miami Center
04:29PM 27.3661 -83.2419 288° West 390 449 39,400 420 Climbing Miami Center
04:30PM 27.4047 -83.3586 290° West 390 449 39,800 300 Climbing Miami Center
04:31PM 27.4350 -83.4725 287° West 390 449 40,000 60 Climbing Miami Center
04:33PM 27.5175 -83.6600 296° West 397 457 40,000  Level Jacksonville Center
04:34PM 27.5647 -83.7750 295° West 397 457 40,000  Level Jacksonville Center
04:35PM 27.6183 -83.8831 299° West 397 457 40,000  Level Jacksonville Center
04:36PM 27.6675 -83.9961 296° West 397 457 40,000  Level Jacksonville Center
04:37PM 27.7247 -84.1069 300° West 397 457 40,000  Level Jacksonville Center
04:38PM 27.7822 -84.2225 299° West 403 464 40,000  Level Jacksonville Center
04:39PM 27.8289 -84.3333 295° West 409 471 40,000  Level Jacksonville Center
04:40PM 27.8839 -84.4469 299° West 409 471 40,000  Level Jacksonville Center
04:41PM 27.9347 -84.5628 296° West 409 471 40,000  Level Jacksonville Center
04:42PM 27.9917 -84.6742 300° West 408 470 40,000  Level Jacksonville Center
04:43PM 28.0358 -84.7853 294° West 419 482 40,000  Level Jacksonville Center
04:44PM 28.0906 -84.8994 299° West 414 476 40,000  Level Jacksonville Center
04:45PM 28.1450 -85.0133 298° West 414 476 40,000  Level Jacksonville Center
04:46PM 28.1953 -85.1297 296° West 414 476 40,000  Level Jacksonville Center
04:47PM 28.2494 -85.2394 299° West 414 476 40,000  Level Jacksonville Center
04:48PM 28.2994 -85.3583 296° West 414 476 40,000  Level Jacksonville Center
04:49PM 28.3536 -85.4706 299° West 408 470 40,000  Level Jacksonville Center
04:50PM 28.4056 -85.5853 297° West 408 470 40,000  Level Jacksonville Center
04:51PM 28.4553 -85.7022 296° West 408 470 40,000  Level Jacksonville Center
04:52PM 28.5111 -85.8172 299° West 408 470 40,000  Level Jacksonville Center
04:53PM 28.5606 -85.9344 296° West 413 475 40,000  Level Jacksonville Center
04:54PM 28.6142 -86.0472 298° West 413 475 40,000  Level Jacksonville Center
04:55PM 28.6692 -86.1767 296° West 408 470 40,000  Level Jacksonville Center
04:56PM 28.7206 -86.2919 297° West 415 478 40,000  Level Jacksonville Center
04:57PM 28.7736 -86.4122 297° West 421 484 40,000  Level Jacksonville Center
04:58PM 28.8244 -86.5325 296° West 416 479 40,000  Level Jacksonville Center
04:59PM 28.8794 -86.6531 298° West 416 479 40,000  Level Jacksonville Center
05:00PM 28.9322 -86.7736 297° West 421 484 40,000  Level Jacksonville Center
05:01PM 28.9850 -86.8894 298° West 415 478 40,000  Level Jacksonville Center
05:02PM 29.0131 -86.9547 296° West 424 488 40,000  Level Houston Center
05:03PM 29.0778 -87.1003 297° West 427 491 40,000  Level Houston Center
05:04PM 29.1297 -87.2231 296° West 429 494 40,000  Level Houston Center
05:05PM 29.1819 -87.3453 296° West 429 494 40,000  Level Houston Center
05:06PM 29.2358 -87.4681 297° West 432 497 40,000  Level Houston Center
05:07PM 29.2864 -87.5919 295° West 429 494 40,000  Level Houston Center
05:08PM 29.3428 -87.7147 298° West 434 499 40,000  Level Houston Center
05:09PM 29.3997 -87.8553 295° West 433 498 40,000  Level Houston Center
05:10PM 29.4531 -87.9811 296° West 438 504 40,000  Level Houston Center
05:11PM 29.5067 -88.1053 296° West 436 502 40,000  Level Houston Center
05:12PM 29.5581 -88.2317 295° West 435 501 40,000  Level Houston Center
05:13PM 29.6125 -88.3536 297° West 431 496 40,000  Level Houston Center
05:14PM 29.6697 -88.4969 295° West 431 496 40,000  Level Houston Center
05:15PM 29.7231 -88.6222 296° West 434 499 40,000  Level Houston Center
05:16PM 29.7753 -88.7464 296° West 434 499 40,000  Level Houston Center
05:17PM 29.8250 -88.8725 294° West 434 499 40,000  Level Houston Center
05:18PM 29.8778 -88.9958 296° West 431 496 40,000  Level Houston Center
05:19PM 29.9278 -89.1222 295° West 431 496 40,000  Level Houston Center
05:20PM 29.9800 -89.2467 296° West 431 496 40,000  Level Houston Center
05:21PM 30.0414 -89.3967 295° West 431 496 40,000 120 Level Houston Center
05:22PM 30.0919 -89.5233 295° West 433 498 40,300 300 Climbing Houston Center
05:23PM 30.1433 -89.6497 295° West 433 498 40,700 300 Climbing Houston Center
05:24PM 30.1939 -89.7786 294° West 434 499 41,000 120 Climbing Houston Center
05:25PM 30.2517 -89.9094 297° West 443 510 41,000  Level Houston Center
05:26PM 30.3147 -90.0342 300° West 444 511 41,000  Level Houston Center
05:27PM 30.3769 -90.1600 300° West 446 513 41,000  Level Houston Center
05:28PM 30.4375 -90.2850 299° West 445 512 41,000  Level Houston Center
05:29PM 30.4994 -90.4086 300° West 441 507 41,000  Level Houston Center
05:30PM 30.5589 -90.5353 299° West 444 511 41,000  Level Houston Center
05:31PM 30.6219 -90.6608 300° West 447 514 41,000  Level Houston Center
05:33PM 30.6947 -90.8111 299° West 448 516 41,000  Level Houston Center
05:34PM 30.7567 -90.9394 299° West 453 521 41,000  Level Houston Center
05:35PM 30.8194 -91.0681 300° West 456 525 41,000  Level Houston Center
05:36PM 30.8736 -91.1900 297° West 457 526 41,000  Level Houston Center
05:37PM 30.9467 -91.3447 299° West 454 522 41,000  Level Houston Center
05:38PM 31.0086 -91.4747 299° West 456 525 41,000  Level Houston Center
05:39PM 31.0714 -91.6075 299° West 465 535 41,000  Level Houston Center
05:40PM 31.1342 -91.7375 299° West 460 529 41,000  Level Houston Center
05:41PM 31.1947 -91.8700 298° West 463 533 41,000  Level Houston Center
05:42PM 31.2572 -92.0022 299° West 464 534 41,000  Level Houston Center
05:43PM 31.3219 -92.1394 299° West 460 529 41,000  Level Houston Center
05:44PM 31.3803 -92.2675 298° West 452 520 41,000  Level Houston Center
05:45PM 31.4417 -92.3964 299° West 453 521 41,000  Level Houston Center
05:46PM 31.5011 -92.5242 299° West 451 519 41,000  Level Houston Center
05:47PM 31.5678 -92.6764 297° West 442 509 41,000  Level Houston Center
05:48PM 31.6264 -92.7997 299° West 436 502 41,000  Level Houston Center
05:49PM 31.6806 -92.9214 298° West 427 491 41,000  Level Houston Center
05:50PM 31.7356 -93.0408 298° West 421 484 41,000  Level Houston Center
05:51PM 31.7903 -93.1600 298° West 415 478 41,000  Level Houston Center
05:52PM 31.8475 -93.2906 297° West 414 476 41,000  Level Houston Center
05:53PM 31.9036 -93.4086 299° West 414 476 41,000  Level Houston Center
05:54PM 31.9556 -93.5286 297° West 412 474 41,000  Level Houston Center
05:55PM 32.0086 -93.6481 298° West 413 475 41,000  Level Houston Center
05:56PM 32.0714 -93.7850 298° West 417 480 41,000  Level Houston Center
05:57PM 32.1236 -93.9064 297° West 417 480 41,000  Level Houston Center
05:58PM 32.1778 -94.0281 298° West 418 481 41,000  Level Houston Center
05:59PM 32.2336 -94.1503 298° West 425 489 41,000  Level Houston Center
06:00PM 32.2856 -94.2750 296° West 424 488 41,000  Level Houston Center
06:01PM 32.3417 -94.3972 299° West 424 488 41,000  Level Houston Center
06:02PM 32.4086 -94.5589 296° West 426 490 41,000  Level Fort Worth Center
06:03PM 32.4614 -94.6828 297° West 418 481 41,000  Level Fort Worth Center
06:04PM 32.5161 -94.8044 298° West 423 487 41,000  Level Fort Worth Center
06:05PM 32.5667 -94.9311 295° West 423 487 41,000  Level Fort Worth Center
06:06PM 32.6214 -95.0556 298° West 423 487 41,000  Level Fort Worth Center
06:07PM 32.6781 -95.1822 298° West 423 487 41,000  Level Fort Worth Center
06:08PM 32.7389 -95.3214 297° West 423 487 41,000  Level Fort Worth Center
06:09PM 32.7908 -95.4464 296° West 423 487 41,000  Level Fort Worth Center
06:10PM 32.8450 -95.5711 297° West 423 487 41,000  Level Fort Worth Center
06:11PM 32.8989 -95.6989 297° West 423 487 41,000  Level Fort Worth Center
06:12PM 32.9528 -95.8264 297° West 423 487 41,000  Level Fort Worth Center
06:13PM 33.0067 -95.9519 297° West 423 487 41,000  Level Fort Worth Center
06:14PM 33.0600 -96.0800 296° West 423 487 41,000  Level Fort Worth Center
06:15PM 33.1136 -96.2081 297° West 423 487 41,000  Level Fort Worth Center
06:16PM 33.1650 -96.3364 296° West 423 487 41,000  Level Fort Worth Center
06:17PM 33.2181 -96.4625 297° West 423 487 41,000  Level Fort Worth Center
06:18PM 33.2711 -96.5911 296° West 423 487 41,000  Level Fort Worth Center
06:19PM 33.3242 -96.7172 297° West 423 487 41,000  Level Fort Worth Center
06:20PM 33.3664 -96.8214 296° West 423 487 41,000  Level Fort Worth Center
06:21PM 33.4275 -96.9728 296° West 423 487 41,000  Level Fort Worth Center
06:22PM 33.4822 -97.0972 298° West 423 487 41,000  Level Fort Worth Center
06:23PM 33.5303 -97.2267 294° West 423 487 41,000  Level Fort Worth Center
06:24PM 33.5806 -97.3536 295° West 418 481 41,000  Level Fort Worth Center
06:25PM 33.6328 -97.4808 296° West 418 481 41,000  Level Fort Worth Center
06:26PM 33.6847 -97.6106 296° West 423 487 41,000  Level Fort Worth Center
06:27PM 33.7347 -97.7356 296° West 423 487 41,000  Level Fort Worth Center
06:28PM 33.7864 -97.8608 296° West 423 487 41,000  Level Fort Worth Center
06:29PM 33.8339 -97.9911 294° West 423 487 41,000  Level Fort Worth Center
06:30PM 33.8856 -98.1167 296° West 423 487 41,000  Level Fort Worth Center
06:31PM 33.9347 -98.2447 295° West 423 487 41,000  Level Fort Worth Center
06:32PM 33.9839 -98.3703 295° West 423 487 41,000  Level Fort Worth Center
06:33PM 34.0350 -98.4986 296° West 423 487 41,000  Level Fort Worth Center
06:34PM 34.0861 -98.6272 296° West 423 487 41,000  Level Fort Worth Center
06:35PM 34.1328 -98.7558 294° West 423 487 41,000  Level Fort Worth Center
06:36PM 34.1833 -98.8897 295° West 423 487 41,000  Level Fort Worth Center
06:37PM 34.2297 -99.0136 294° West 417 480 41,000 -120 Level Fort Worth Center
06:38PM 34.2722 -99.1250 295° West 417 480 40,800 -1,020 Descending Fort Worth Center
06:39PM 34.3247 -99.2542 296° West 417 480 39,000 -1,740 Descending Fort Worth Center
06:40PM 34.3747 -99.3836 295° West 423 487 37,400 -1,560 Descending Fort Worth Center
06:43PM 34.4908 -99.6917 295° West 428 493 34,100 -1,800 Descending Albuquerque Center
06:44PM 34.5406 -99.8281 294° West 436 502 31,700 -2,280 Descending Albuquerque Center
06:45PM 34.5917 -99.9636 295° West 439 505 29,500 -1,320 Descending Albuquerque Center
06:46PM 34.6431 -100.1008 295° West 443 510 29,000 -1,380 Descending Albuquerque Center
06:47PM 34.6939 -100.2425 294° West 451 519 26,700 -2,280 Descending Albuquerque Center
06:48PM 34.7456 -100.3786 295° West 446 513 24,400 -2,220 Descending Albuquerque Center
06:49PM 34.7978 -100.5247 294° West 444 511 22,200 -2,400 Descending Albuquerque Center
06:50PM 34.8494 -100.6594 295° West 441 507 19,500 -2,520 Descending Albuquerque Center
06:51PM 34.8942 -100.7853 293° West 413 475 17,100 -2,460 Descending Albuquerque Center
06:52PM 34.9372 -100.9031 294° West 388 447 14,600 -2,220 Descending Albuquerque Center
06:53PM 34.9931 -101.0017 305° West 360 414 12,700 -1,860 Descending Albuquerque Center
06:54PM 35.0525 -101.0803 313° West 324 373 10,900 -1,680 Descending Albuquerque Center
06:55PM 35.0972 -101.1678 302° West 309 356 9,300 -1,680 Descending Albuquerque Center
06:56PM 35.1400 -101.2561 301° West 306 352 7,500 -1,560 Descending Albuquerque Center
06:57PM 35.1894 -101.3575 301° West 298 343 6,200 -900 Descending Albuquerque Center
06:58PM 35.2269 -101.4331 301° West 280 322 5,700 -600 Descending Albuquerque Center
06:59PM 35.2522 -101.5111 292° West 259 298 5,000 -420 Descending Albuquerque Center
07:00PM 35.2711 -101.5853 287° West 240 276 4,900 -180 Descending Albuquerque Center
07:01PM 35.2717 -101.6489 271° West 212 244 4,700 -360 Descending Albuquerque Center
07:02PM 35.2467 -101.6783 224° Southwest 161 185 4,200 -480 Descending Albuquerque Center
07:03PM 35.2211 -101.7103 226° Southwest 146 168 3,800 -420 Descending Albuquerque Center
07:05PM 35.2167 -101.7000 242° Southwest  Level FlightAware Approximate